Terminal Aerodrome Forecast
Issued by NWS Lake Charles, LA

Home | Current Version | Previous Version | Text Only | Print | Product List | Glossary On
Versions: 1 2 3 4 5 6 7 8 9 10 11 12 13 14 15 16
000
FTUS44 KLCH 172300
TAFLFT
TAF
KLFT 172332Z 1800/1824 24006KT P6SM SCT040 BKN100
     FM180800 00000KT 6SM BR FEW025
      TEMPO 1810/1814 3SM BR BKN025
     FM181500 09005KT P6SM VCTS SCT025CB
      TEMPO 1818/1822 3SM TSRA BKN025CB=

USA.gov is the U.S. government's official web portal to all federal, state and local government web resources and services.